Hang Nadim, Indonesia

2:00 AM WIT on July 23, 2014 (GMT +0700)
HANG NADIM (WIDD) Elev 125 ft | 1.12 °N, 104.12 °E | Change Station

Current weather conditions updated 30 minutes ago

Mostly Cloudy
Mostly Cloudy
82 °F
Feels Like 92 °F
N
4
Wind Variable Wind from SE

Today is forecast to be nearly the same temperature as yesterday. Thunderstorms.

Today
High -- | Low -- °F
--% Chance of Precip.
Yesterday
High -- | Low -- °F
Precip. -- in
6:04 AM 6:15 PM
Waning Crescent, 15% visible
Pressure 29.80 in
Visibility 6.2 miles
Clouds Mostly Cloudy 15000 ft
Heat Index 92 °F
Dew Point 79 °F
Humidity 89%
Rainfall 0.00 in
Snow Depth Not available.
UV 0 out of 12
Pollen Not available.
Air Quality Not available.
Flu Activity Not available.
METAR WIDD 221830Z AUTO 14003KT 110V190 9999NDV BKN150 28/26 Q1009

More Conditions Fewer Conditions

Pressure 29.80 in
Visibility 6.2 miles
Clouds Mostly Cloudy 15000 ft
Heat Index 92 °F
Dew Point 79 °F
Humidity 89%
Rainfall 0.00 in
Snow Depth Not available.
UV 0 out of 12
Pollen Not available.
Air Quality Not available.
Flu Activity Not available.
METAR WIDD 221830Z AUTO 14003KT 110V190 9999NDV BKN150 28/26 Q1009

More Conditions Fewer Conditions

10-Day Weather Forecast

Almanac

Astronomy

Jul. 23, 2014 Rise Set
Actual Time 6:04 AM WIT 6:15 PM WIT
Civil Twilight 5:42 AM WIT 6:37 PM WIT
Nautical Twilight 5:17 AM WIT 7:02 PM WIT
Astronomical Twilight 4:51 AM WIT 7:28 PM WIT
Moon 2:53 AM WIT (7/23) 3:20 PM WIT (7/23)
Length of Visible Light 12h 54m
Length of Day
12h 10m
Tomorrow will be 0m 3s shorter.
Waning Crescent, 15% of the Moon is Illuminated
Jul 22
Waning Crescent
Jul 26
New
Aug 3
First Quarter
Aug 10
Full
Aug 17
Last Quarter

Yesterday's Extremes

Country Highs Country Lows

Community

WunderPhotos

Upload Photos

1,736,333 photos uploaded!

Nearby

Snow Depth

Not available.

Earthquake Activity

City Distance Mag. Time & Date
No recent earthquake activity has been reported nearby.
Minimum magnitude displayed is 2.5.

Coastal Water Temperatures

Place Temperature
No Stations Reporting

Nearby Weather Stations

Station Location Temp. Heat Index Dew Point Humidity Wind Precip. Elev Updated Type
Ocean Park, Singapore 84.3 °F 100 °F 82 °F 91% NNW  at  0.0 mph 0.00 in / hr 66 ft 2:53 AM SGT Normal
Alexandra, Singapore 83.2 °F 95 °F 80 °F 89% SSE  at  0.0 mph 0.00 in / hr 144 ft 2:46 AM SGT Normal

Show More Stations Show Fewer Stations